Better Than A Horror Movie

KTIK 040010Z RMK TORNADO 135W MOV NE. LARGE TORNADO ON THE GROUND TAKE COVER IMMEDIATELY.

 KTIK 040019Z 08008KT 1 SM +FC TSRAGR OVCO2OCB 21/20 A2955 RMK TORNADO 98W MOV NE FRO LTGICCCCG TS OHD MOV NE GR 11/4 PRESFR=

 KTIK 040031Z 08006KT 68M +FC OVCO2OCB 21/20 A2956 RMK TORNADO 58W MOV NE FRQ LTGICCCCG TS OHD MOV NE PRESRR=

 KTIK 040036Z 08006KT 68M +FC OVCO2OCB 21/20 A2954 RMK TORNADO 35W MOV NE FRO LTGICCCCG TS OHD MOV NE PRES UNSTDY=

 KTIK 040043Z RMK TORNADO OHD. EVACUATING STATION

 KTIK 040043Z COR RMK TORNADO 1W MOV NE. EVACUATING STATION=

Note: +FC = tornado or waterspout; TS= Thunderstorm; RA=Rain; GR*= Hail

*Graupel = pellets of ice > 5 mm in diameter is called hail